Hlavní strana
METAR-TAF:

METAR-TAF

Letiště :

Liepāja, Lotyšsko

zeměpisná šířka: 56-31N, zeměpisná délka: 021-05E, výška: 5 m

Aktuální stav počasí

Zpráva byla vytvořena před 32 minutami, v 21:50 UTC
Západojihozápadní vítr 14 kt
Teplota 5°C
Vlhkost vzduchu 93%
Tlak 1016 hPa
Viditelnost: 8000 m

METAR: EVLA 252150Z AUTO 25014KT 8000 SCT045/// OVC073/// 05/04 Q1016

Čas: 00:22 (22:22 UTC)

Předpověď počasí

Zpráva byla vytvořena před 2 hodinami a 19 minutami, v 20:03 UTC
Předpověď platná od 25 v 21 UTC do 26 v 21 UTC
Jihozápadní vítr 12 kt
Viditelnost 10 km a více
Žádná oblačnost pod 1500 m, nevyskytují se cumulonimby.
Dočasný
od 25 v 21 UTC do 25 v 24 UTC
Viditelnost: 1500 m
Oblačno až skoro zataženo ve výšce 200 ft
kouřmo
Dočasný
od 26 v 00 UTC do 26 v 06 UTC
Západojihozápadní vítr 15 kt s nárazy do 28 kt

TAF: EVLA 252003Z 2521/2621 22012KT CAVOK TEMPO 2521/2524 1500 BR BKN002 TEMPO 2600/2606 24015G28KT

Stav a předpovědi počasí z více než 4 000 letišť (zprávy METAR a TAF).

Červené a žluté tečky na mapě představují dostupné meteorologické stanice.

Když kurzor umístíte na tečku, zobrazí se název stanice.

Pak kliknutím zobrazíte stav a předpověď počasí.

Chcete-li změnit mapu, kliknutím na zelené tlačítko se znaménkem +mapu přiblížíte, kliknutím na zelené tlačítko se znaménkem – mapu oddálíte a kliknutím na zelené šipky přejdete na sousední mapy.


METAR-TAF: